sensor_id;sensor_type;location;lat;lon;timestamp;pressure;altitude;pressure_sealevel;temperature;humidity
13209;BME280;6669;42.678;23.332;2023-03-03T00:01:02;94569.78;;;4.36;100.00
13209;BME280;6669;42.678;23.332;2023-03-03T00:03:31;94578.03;;;4.40;100.00
13209;BME280;6669;42.678;23.332;2023-03-03T00:06:01;94579.00;;;4.29;100.00
13209;BME280;6669;42.678;23.332;2023-03-03T00:08:29;94576.97;;;4.33;100.00
13209;BME280;6669;42.678;23.332;2023-03-03T00:10:58;94577.63;;;4.35;100.00
13209;BME280;6669;42.678;23.332;2023-03-03T00:13:29;94558.66;;;4.26;100.00
13209;BME280;6669;42.678;23.332;2023-03-03T00:16:13;94559.91;;;4.32;100.00
13209;BME280;6669;42.678;23.332;2023-03-03T00:18:43;94558.41;;;4.29;100.00
13209;BME280;6669;42.678;23.332;2023-03-03T00:21:23;94555.84;;;4.29;100.00
13209;BME280;6669;42.678;23.332;2023-03-03T00:23:52;94553.13;;;4.31;100.00
13209;BME280;6669;42.678;23.332;2023-03-03T00:26:22;94570.72;;;4.25;100.00
13209;BME280;6669;42.678;23.332;2023-03-03T00:28:52;94558.53;;;4.28;100.00
13209;BME280;6669;42.678;23.332;2023-03-03T00:31:27;94548.66;;;4.23;100.00
13209;BME280;6669;42.678;23.332;2023-03-03T00:34:18;94558.94;;;4.23;100.00
13209;BME280;6669;42.678;23.332;2023-03-03T00:36:54;94555.81;;;4.19;100.00
13209;BME280;6669;42.678;23.332;2023-03-03T00:39:28;94546.75;;;4.15;100.00
13209;BME280;6669;42.678;23.332;2023-03-03T00:41:59;94545.50;;;4.09;100.00
13209;BME280;6669;42.678;23.332;2023-03-03T00:44:39;94541.19;;;4.10;100.00
13209;BME280;6669;42.678;23.332;2023-03-03T00:47:24;94530.50;;;4.05;100.00
13209;BME280;6669;42.678;23.332;2023-03-03T00:50:20;94536.19;;;3.99;100.00
13209;BME280;6669;42.678;23.332;2023-03-03T00:53:01;94526.56;;;4.01;100.00
13209;BME280;6669;42.678;23.332;2023-03-03T00:55:30;94528.19;;;4.02;100.00
13209;BME280;6669;42.678;23.332;2023-03-03T00:57:58;94520.31;;;4.03;100.00
13209;BME280;6669;42.678;23.332;2023-03-03T01:00:26;94509.50;;;4.09;100.00
13209;BME280;6669;42.678;23.332;2023-03-03T01:02:54;94515.19;;;4.13;100.00
13209;BME280;6669;42.678;23.332;2023-03-03T01:05:22;94502.75;;;4.18;100.00
13209;BME280;6669;42.678;23.332;2023-03-03T01:07:50;94505.59;;;4.15;100.00
13209;BME280;6669;42.678;23.332;2023-03-03T01:10:19;94509.66;;;4.18;100.00
13209;BME280;6669;42.678;23.332;2023-03-03T01:12:48;94508.41;;;4.12;100.00
13209;BME280;6669;42.678;23.332;2023-03-03T01:15:16;94508.41;;;4.12;100.00
13209;BME280;6669;42.678;23.332;2023-03-03T01:17:44;94503.28;;;4.12;100.00
13209;BME280;6669;42.678;23.332;2023-03-03T01:20:13;94510.88;;;4.14;100.00
13209;BME280;6669;42.678;23.332;2023-03-03T01:22:42;94502.63;;;4.10;100.00
13209;BME280;6669;42.678;23.332;2023-03-03T01:25:10;94510.03;;;4.03;100.00
13209;BME280;6669;42.678;23.332;2023-03-03T01:27:39;94502.88;;;3.97;100.00
13209;BME280;6669;42.678;23.332;2023-03-03T01:30:09;94503.53;;;3.99;100.00
13209;BME280;6669;42.678;23.332;2023-03-03T01:32:37;94502.22;;;4.05;100.00
13209;BME280;6669;42.678;23.332;2023-03-03T01:35:06;94492.31;;;4.10;100.00
13209;BME280;6669;42.678;23.332;2023-03-03T01:37:34;94487.56;;;4.05;100.00
13209;BME280;6669;42.678;23.332;2023-03-03T01:40:03;94494.06;;;4.09;100.00
13209;BME280;6669;42.678;23.332;2023-03-03T01:42:32;94492.72;;;4.05;100.00
13209;BME280;6669;42.678;23.332;2023-03-03T01:45:13;94493.00;;;4.02;100.00
13209;BME280;6669;42.678;23.332;2023-03-03T01:47:45;94493.53;;;4.06;100.00
13209;BME280;6669;42.678;23.332;2023-03-03T01:50:16;94489.19;;;3.97;100.00
13209;BME280;6669;42.678;23.332;2023-03-03T01:52:46;94493.00;;;3.92;100.00
13209;BME280;6669;42.678;23.332;2023-03-03T01:55:17;94494.88;;;4.00;100.00
13209;BME280;6669;42.678;23.332;2023-03-03T01:57:50;94490.44;;;4.02;100.00
13209;BME280;6669;42.678;23.332;2023-03-03T02:00:20;94493.25;;;3.99;100.00
13209;BME280;6669;42.678;23.332;2023-03-03T02:02:48;94494.47;;;3.95;100.00
13209;BME280;6669;42.678;23.332;2023-03-03T02:05:17;94485.41;;;4.01;100.00
13209;BME280;6669;42.678;23.332;2023-03-03T02:07:45;94488.66;;;4.03;100.00
13209;BME280;6669;42.678;23.332;2023-03-03T02:10:16;94497.59;;;3.99;100.00
13209;BME280;6669;42.678;23.332;2023-03-03T02:12:48;94490.81;;;3.98;100.00
13209;BME280;6669;42.678;23.332;2023-03-03T02:15:21;94485.97;;;3.95;100.00
13209;BME280;6669;42.678;23.332;2023-03-03T02:17:51;94488.53;;;4.04;100.00
13209;BME280;6669;42.678;23.332;2023-03-03T02:20:30;94487.56;;;3.96;100.00
13209;BME280;6669;42.678;23.332;2023-03-03T02:23:06;94487.72;;;4.04;100.00
13209;BME280;6669;42.678;23.332;2023-03-03T02:25:41;94490.28;;;4.04;100.00
13209;BME280;6669;42.678;23.332;2023-03-03T02:28:13;94489.34;;;4.05;100.00
13209;BME280;6669;42.678;23.332;2023-03-03T02:30:41;94496.53;;;4.01;100.00
13209;BME280;6669;42.678;23.332;2023-03-03T02:33:09;94490.44;;;4.02;100.00
13209;BME280;6669;42.678;23.332;2023-03-03T02:35:39;94485.69;;;3.98;100.00
13209;BME280;6669;42.678;23.332;2023-03-03T02:38:16;94490.16;;;4.05;100.00
13209;BME280;6669;42.678;23.332;2023-03-03T02:40:51;94488.94;;;4.09;100.00
13209;BME280;6669;42.678;23.332;2023-03-03T02:43:28;94495.28;;;4.05;100.00
13209;BME280;6669;42.678;23.332;2023-03-03T02:45:58;94487.97;;;4.01;100.00
13209;BME280;6669;42.678;23.332;2023-03-03T02:48:26;94494.63;;;4.13;100.00
13209;BME280;6669;42.678;23.332;2023-03-03T02:50:54;94482.97;;;4.09;100.00
13209;BME280;6669;42.678;23.332;2023-03-03T02:53:22;94485.81;;;4.06;100.00
13209;BME280;6669;42.678;23.332;2023-03-03T02:55:50;94490.94;;;4.06;100.00
13209;BME280;6669;42.678;23.332;2023-03-03T02:58:18;94480.81;;;4.04;100.00
13209;BME280;6669;42.678;23.332;2023-03-03T03:00:47;94482.56;;;3.94;100.00
13209;BME280;6669;42.678;23.332;2023-03-03T03:03:15;94481.34;;;3.98;100.00
13209;BME280;6669;42.678;23.332;2023-03-03T03:05:43;94483.91;;;3.98;100.00
13209;BME280;6669;42.678;23.332;2023-03-03T03:08:11;94480.00;;;4.04;100.00
13209;BME280;6669;42.678;23.332;2023-03-03T03:10:39;94485.53;;;3.99;100.00
13209;BME280;6669;42.678;23.332;2023-03-03T03:13:07;94476.34;;;3.97;100.00
13209;BME280;6669;42.678;23.332;2023-03-03T03:15:35;94474.84;;;3.84;100.00
13209;BME280;6669;42.678;23.332;2023-03-03T03:18:05;94473.66;;;3.88;100.00
13209;BME280;6669;42.678;23.332;2023-03-03T03:20:35;94472.81;;;3.98;100.00
13209;BME280;6669;42.678;23.332;2023-03-03T03:23:03;94474.44;;;3.99;100.00
13209;BME280;6669;42.678;23.332;2023-03-03T03:25:31;94478.09;;;4.06;100.00
13209;BME280;6669;42.678;23.332;2023-03-03T03:27:59;94475.66;;;4.04;100.00
13209;BME280;6669;42.678;23.332;2023-03-03T03:30:27;94471.19;;;4.06;100.00
13209;BME280;6669;42.678;23.332;2023-03-03T03:32:55;94475.00;;;4.02;100.00
13209;BME280;6669;42.678;23.332;2023-03-03T03:35:24;94471.06;;;3.98;100.00
13209;BME280;6669;42.678;23.332;2023-03-03T03:37:52;94465.50;;;3.93;100.00
13209;BME280;6669;42.678;23.332;2023-03-03T03:40:20;94461.59;;;3.99;100.00
13209;BME280;6669;42.678;23.332;2023-03-03T03:42:48;94462.66;;;4.06;100.00
13209;BME280;6669;42.678;23.332;2023-03-03T03:45:16;94463.34;;;3.98;100.00
13209;BME280;6669;42.678;23.332;2023-03-03T03:47:44;94461.31;;;4.02;100.00
13209;BME280;6669;42.678;23.332;2023-03-03T03:50:12;94455.63;;;3.98;100.00
13209;BME280;6669;42.678;23.332;2023-03-03T03:52:41;94447.25;;;3.96;100.00
13209;BME280;6669;42.678;23.332;2023-03-03T03:55:10;94454.03;;;3.97;100.00
13209;BME280;6669;42.678;23.332;2023-03-03T03:57:38;94456.59;;;3.97;100.00
13209;BME280;6669;42.678;23.332;2023-03-03T04:00:07;94455.50;;;4.00;100.00
13209;BME280;6669;42.678;23.332;2023-03-03T04:02:35;94442.34;;;3.93;100.00
13209;BME280;6669;42.678;23.332;2023-03-03T04:05:04;94448.34;;;3.93;100.00
13209;BME280;6669;42.678;23.332;2023-03-03T04:07:32;94444.28;;;3.91;100.00
13209;BME280;6669;42.678;23.332;2023-03-03T04:10:02;94442.91;;;3.97;100.00
13209;BME280;6669;42.678;23.332;2023-03-03T04:12:30;94446.84;;;3.91;100.00
13209;BME280;6669;42.678;23.332;2023-03-03T04:15:05;94451.69;;;3.84;100.00
13209;BME280;6669;42.678;23.332;2023-03-03T04:17:34;94451.59;;;3.86;100.00
13209;BME280;6669;42.678;23.332;2023-03-03T04:20:03;94448.72;;;3.89;100.00
13209;BME280;6669;42.678;23.332;2023-03-03T04:22:32;94439.81;;;3.83;100.00
13209;BME280;6669;42.678;23.332;2023-03-03T04:25:03;94448.84;;;3.78;100.00
13209;BME280;6669;42.678;23.332;2023-03-03T04:27:31;94450.88;;;3.84;100.00
13209;BME280;6669;42.678;23.332;2023-03-03T04:30:00;94446.69;;;3.83;100.00
13209;BME280;6669;42.678;23.332;2023-03-03T04:32:28;94440.88;;;3.90;100.00
13209;BME280;6669;42.678;23.332;2023-03-03T04:34:58;94444.28;;;3.91;100.00
13209;BME280;6669;42.678;23.332;2023-03-03T04:37:34;94438.19;;;3.92;100.00
13209;BME280;6669;42.678;23.332;2023-03-03T04:40:04;94439.94;;;3.91;100.00
13209;BME280;6669;42.678;23.332;2023-03-03T04:42:33;94447.38;;;3.85;100.00
13209;BME280;6669;42.678;23.332;2023-03-03T04:45:02;94439.13;;;3.81;100.00
13209;BME280;6669;42.678;23.332;2023-03-03T04:47:30;94441.56;;;3.73;100.00
13209;BME280;6669;42.678;23.332;2023-03-03T04:49:59;94438.16;;;3.72;100.00
13209;BME280;6669;42.678;23.332;2023-03-03T04:52:30;94446.56;;;3.84;100.00
13209;BME280;6669;42.678;23.332;2023-03-03T04:54:58;94435.75;;;3.81;100.00
13209;BME280;6669;42.678;23.332;2023-03-03T04:57:27;94442.38;;;3.83;100.00
13209;BME280;6669;42.678;23.332;2023-03-03T04:59:55;94448.19;;;3.85;100.00
13209;BME280;6669;42.678;23.332;2023-03-03T05:02:23;94446.00;;;3.90;100.00
13209;BME280;6669;42.678;23.332;2023-03-03T05:04:51;94446.28;;;3.87;100.00
13209;BME280;6669;42.678;23.332;2023-03-03T05:07:19;94446.56;;;3.94;100.00
13209;BME280;6669;42.678;23.332;2023-03-03T05:09:47;94435.47;;;3.84;100.00
13209;BME280;6669;42.678;23.332;2023-03-03T05:12:15;94449.28;;;3.92;100.00
13209;BME280;6669;42.678;23.332;2023-03-03T05:14:44;94445.75;;;3.93;100.00
13209;BME280;6669;42.678;23.332;2023-03-03T05:17:13;94448.06;;;3.97;100.00
13209;BME280;6669;42.678;23.332;2023-03-03T05:19:41;94447.66;;;3.91;100.00
13209;BME280;6669;42.678;23.332;2023-03-03T05:22:09;94454.97;;;3.96;100.00
13209;BME280;6669;42.678;23.332;2023-03-03T05:24:37;94454.41;;;3.92;100.00
13209;BME280;6669;42.678;23.332;2023-03-03T05:27:05;94454.28;;;3.94;100.00
13209;BME280;6669;42.678;23.332;2023-03-03T05:29:33;94455.91;;;4.05;100.00
13209;BME280;6669;42.678;23.332;2023-03-03T05:32:02;94455.47;;;4.09;100.00
13209;BME280;6669;42.678;23.332;2023-03-03T05:34:30;94458.75;;;4.21;100.00
13209;BME280;6669;42.678;23.332;2023-03-03T05:36:58;94452.66;;;4.13;100.00
13209;BME280;6669;42.678;23.332;2023-03-03T05:39:26;94463.34;;;4.18;100.00
13209;BME280;6669;42.678;23.332;2023-03-03T05:41:54;94457.94;;;4.11;100.00
13209;BME280;6669;42.678;23.332;2023-03-03T05:44:22;94458.06;;;4.09;100.00
13209;BME280;6669;42.678;23.332;2023-03-03T05:46:50;94457.66;;;4.04;100.00
13209;BME280;6669;42.678;23.332;2023-03-03T05:49:20;94462.25;;;4.11;100.00
13209;BME280;6669;42.678;23.332;2023-03-03T05:51:48;94470.66;;;4.13;100.00
13209;BME280;6669;42.678;23.332;2023-03-03T05:54:16;94460.22;;;4.14;100.00
13209;BME280;6669;42.678;23.332;2023-03-03T05:56:43;94465.38;;;4.14;100.00
13209;BME280;6669;42.678;23.332;2023-03-03T05:59:11;94458.59;;;4.13;100.00
13209;BME280;6669;42.678;23.332;2023-03-03T06:01:39;94466.47;;;4.12;100.00
13209;BME280;6669;42.678;23.332;2023-03-03T06:04:07;94464.00;;;4.20;100.00
13209;BME280;6669;42.678;23.332;2023-03-03T06:06:36;94468.22;;;4.21;100.00
13209;BME280;6669;42.678;23.332;2023-03-03T06:09:04;94469.44;;;4.27;100.00
13209;BME280;6669;42.678;23.332;2023-03-03T06:11:33;94466.31;;;4.23;100.00
13209;BME280;6669;42.678;23.332;2023-03-03T06:14:01;94469.69;;;4.33;100.00
13209;BME280;6669;42.678;23.332;2023-03-03T06:16:28;94468.75;;;4.34;100.00
13209;BME280;6669;42.678;23.332;2023-03-03T06:18:56;94476.72;;;4.41;100.00
13209;BME280;6669;42.678;23.332;2023-03-03T06:21:24;94477.81;;;4.48;100.00
13209;BME280;6669;42.678;23.332;2023-03-03T06:23:55;94478.06;;;4.45;100.00
13209;BME280;6669;42.678;23.332;2023-03-03T06:26:23;94475.94;;;4.40;100.00
13209;BME280;6669;42.678;23.332;2023-03-03T06:28:51;94479.00;;;4.44;100.00
13209;BME280;6669;42.678;23.332;2023-03-03T06:31:20;94479.00;;;4.44;100.00
13209;BME280;6669;42.678;23.332;2023-03-03T06:33:48;94482.81;;;4.50;100.00
13209;BME280;6669;42.678;23.332;2023-03-03T06:36:17;94477.53;;;4.51;100.00
13209;BME280;6669;42.678;23.332;2023-03-03T06:38:45;94484.00;;;4.55;100.00
13209;BME280;6669;42.678;23.332;2023-03-03T06:41:14;94475.88;;;4.60;100.00
13209;BME280;6669;42.678;23.332;2023-03-03T06:43:43;94476.69;;;4.61;100.00
13209;BME280;6669;42.678;23.332;2023-03-03T06:46:13;94476.56;;;4.52;100.00
13209;BME280;6669;42.678;23.332;2023-03-03T06:48:42;94485.94;;;4.53;100.00
13209;BME280;6669;42.678;23.332;2023-03-03T06:51:21;94489.16;;;4.55;100.00
13209;BME280;6669;42.678;23.332;2023-03-03T06:53:50;94485.38;;;4.60;100.00
13209;BME280;6669;42.678;23.332;2023-03-03T06:56:21;94485.63;;;4.56;100.00
13209;BME280;6669;42.678;23.332;2023-03-03T06:58:53;94478.31;;;4.62;100.00
13209;BME280;6669;42.678;23.332;2023-03-03T07:01:21;94490.38;;;4.71;100.00
13209;BME280;6669;42.678;23.332;2023-03-03T07:03:49;94487.50;;;4.74;100.00
13209;BME280;6669;42.678;23.332;2023-03-03T07:06:21;94489.94;;;4.75;100.00
13209;BME280;6669;42.678;23.332;2023-03-03T07:08:50;94487.59;;;4.82;100.00
13209;BME280;6669;42.678;23.332;2023-03-03T07:11:21;94489.63;;;4.88;100.00
13209;BME280;6669;42.678;23.332;2023-03-03T07:13:51;94489.75;;;4.97;100.00
13209;BME280;6669;42.678;23.332;2023-03-03T07:16:24;94492.00;;;5.10;100.00
13209;BME280;6669;42.678;23.332;2023-03-03T07:18:54;94495.38;;;5.10;100.00
13209;BME280;6669;42.678;23.332;2023-03-03T07:21:25;94495.94;;;5.04;100.00
13209;BME280;6669;42.678;23.332;2023-03-03T07:23:59;94500.16;;;5.05;100.00
13209;BME280;6669;42.678;23.332;2023-03-03T07:26:30;94486.41;;;4.86;100.00
13209;BME280;6669;42.678;23.332;2023-03-03T07:29:00;94480.56;;;4.84;100.00
13209;BME280;6669;42.678;23.332;2023-03-03T07:31:33;94493.41;;;4.94;100.00
13209;BME280;6669;42.678;23.332;2023-03-03T07:34:13;94496.25;;;5.01;100.00
13209;BME280;6669;42.678;23.332;2023-03-03T07:36:43;94495.38;;;5.10;100.00
13209;BME280;6669;42.678;23.332;2023-03-03T07:39:30;94487.38;;;5.13;100.00
13209;BME280;6669;42.678;23.332;2023-03-03T07:42:20;94486.56;;;5.13;100.00
13209;BME280;6669;42.678;23.332;2023-03-03T07:44:50;94485.59;;;5.14;100.00
13209;BME280;6669;42.678;23.332;2023-03-03T07:47:22;94487.78;;;5.18;100.00
13209;BME280;6669;42.678;23.332;2023-03-03T07:49:51;94485.44;;;5.25;100.00
13209;BME280;6669;42.678;23.332;2023-03-03T07:52:26;94477.84;;;5.23;100.00
13209;BME280;6669;42.678;23.332;2023-03-03T07:54:56;94481.59;;;5.29;100.00
13209;BME280;6669;42.678;23.332;2023-03-03T07:57:31;94481.78;;;5.18;100.00
13209;BME280;6669;42.678;23.332;2023-03-03T08:03:15;94476.97;;;5.33;100.00
13209;BME280;6669;42.678;23.332;2023-03-03T08:05:46;94476.41;;;5.39;100.00
13209;BME280;6669;42.678;23.332;2023-03-03T08:08:30;94470.16;;;5.42;100.00
13209;BME280;6669;42.678;23.332;2023-03-03T08:11:02;94471.56;;;5.36;100.00
13209;BME280;6669;42.678;23.332;2023-03-03T08:13:37;94477.47;;;5.46;100.00
13209;BME280;6669;42.678;23.332;2023-03-03T08:16:24;94476.00;;;5.44;100.00
13209;BME280;6669;42.678;23.332;2023-03-03T08:18:57;94476.38;;;5.49;100.00
13209;BME280;6669;42.678;23.332;2023-03-03T08:21:29;94472.97;;;5.48;100.00
13209;BME280;6669;42.678;23.332;2023-03-03T08:23:58;94481.06;;;5.53;100.00
13209;BME280;6669;42.678;23.332;2023-03-03T08:26:26;94468.50;;;5.50;100.00
13209;BME280;6669;42.678;23.332;2023-03-03T08:28:55;94470.75;;;5.53;100.00
13209;BME280;6669;42.678;23.332;2023-03-03T08:31:23;94468.13;;;5.45;100.00
13209;BME280;6669;42.678;23.332;2023-03-03T08:34:07;94469.75;;;5.46;100.00
13209;BME280;6669;42.678;23.332;2023-03-03T08:36:35;94465.22;;;5.48;100.00
13209;BME280;6669;42.678;23.332;2023-03-03T08:39:04;94461.84;;;5.48;100.00
13209;BME280;6669;42.678;23.332;2023-03-03T08:41:32;94456.16;;;5.44;100.00
13209;BME280;6669;42.678;23.332;2023-03-03T08:44:01;94461.69;;;5.49;100.00
13209;BME280;6669;42.678;23.332;2023-03-03T08:46:31;94473.34;;;5.53;100.00
13209;BME280;6669;42.678;23.332;2023-03-03T08:48:59;94470.13;;;5.51;100.00
13209;BME280;6669;42.678;23.332;2023-03-03T08:51:27;94471.44;;;5.55;100.00
13209;BME280;6669;42.678;23.332;2023-03-03T08:53:55;94471.13;;;5.59;100.00
13209;BME280;6669;42.678;23.332;2023-03-03T08:56:23;94467.84;;;5.66;100.00
13209;BME280;6669;42.678;23.332;2023-03-03T08:58:51;94466.47;;;5.72;100.00
13209;BME280;6669;42.678;23.332;2023-03-03T09:01:29;94470.72;;;5.81;100.00
13209;BME280;6669;42.678;23.332;2023-03-03T09:03:58;94463.94;;;5.80;100.00
13209;BME280;6669;42.678;23.332;2023-03-03T09:06:26;94481.50;;;5.95;100.00
13209;BME280;6669;42.678;23.332;2023-03-03T09:08:54;94469.97;;;5.99;100.00
13209;BME280;6669;42.678;23.332;2023-03-03T09:11:24;94473.22;;;6.01;100.00
13209;BME280;6669;42.678;23.332;2023-03-03T09:13:59;94468.44;;;6.06;100.00
13209;BME280;6669;42.678;23.332;2023-03-03T09:16:39;94468.78;;;6.11;100.00
13209;BME280;6669;42.678;23.332;2023-03-03T09:19:21;94466.13;;;6.21;100.00
13209;BME280;6669;42.678;23.332;2023-03-03T09:21:51;94453.59;;;6.26;100.00
13209;BME280;6669;42.678;23.332;2023-03-03T09:24:25;94465.28;;;6.38;100.00
13209;BME280;6669;42.678;23.332;2023-03-03T09:26:54;94472.66;;;6.33;100.00
13209;BME280;6669;42.678;23.332;2023-03-03T09:29:25;94460.06;;;6.30;100.00
13209;BME280;6669;42.678;23.332;2023-03-03T09:31:56;94468.97;;;6.36;100.00
13209;BME280;6669;42.678;23.332;2023-03-03T09:34:37;94471.66;;;6.26;100.00
13209;BME280;6669;42.678;23.332;2023-03-03T09:37:20;94461.81;;;6.30;100.00
13209;BME280;6669;42.678;23.332;2023-03-03T09:39:50;94465.53;;;6.27;100.00
13209;BME280;6669;42.678;23.332;2023-03-03T09:42:44;94471.41;;;6.37;100.00
13209;BME280;6669;42.678;23.332;2023-03-03T09:45:42;94466.72;;;6.33;100.00
13209;BME280;6669;42.678;23.332;2023-03-03T09:48:37;94466.59;;;6.43;100.00
13209;BME280;6669;42.678;23.332;2023-03-03T09:51:23;94465.41;;;6.29;100.00
13209;BME280;6669;42.678;23.332;2023-03-03T09:56:59;94464.50;;;6.20;100.00
13209;BME280;6669;42.678;23.332;2023-03-03T09:59:44;94463.09;;;6.26;100.00
13209;BME280;6669;42.678;23.332;2023-03-03T10:02:29;94462.72;;;6.38;100.00
13209;BME280;6669;42.678;23.332;2023-03-03T10:05:09;94464.25;;;6.49;100.00
13209;BME280;6669;42.678;23.332;2023-03-03T10:07:48;94467.59;;;6.42;100.00
13209;BME280;6669;42.678;23.332;2023-03-03T10:10:29;94466.72;;;6.33;100.00
13209;BME280;6669;42.678;23.332;2023-03-03T10:13:17;94458.88;;;6.25;100.00
13209;BME280;6669;42.678;23.332;2023-03-03T10:16:06;94461.91;;;6.02;100.00
13209;BME280;6669;42.678;23.332;2023-03-03T10:18:45;94455.78;;;6.21;100.00
13209;BME280;6669;42.678;23.332;2023-03-03T10:21:21;94458.81;;;6.34;100.00
13209;BME280;6669;42.678;23.332;2023-03-03T10:23:53;94459.56;;;6.27;100.00
13209;BME280;6669;42.678;23.332;2023-03-03T10:29:43;94448.53;;;6.43;100.00
13209;BME280;6669;42.678;23.332;2023-03-03T10:32:26;94448.53;;;6.43;100.00
13209;BME280;6669;42.678;23.332;2023-03-03T10:38:01;94450.06;;;6.53;100.00
13209;BME280;6669;42.678;23.332;2023-03-03T10:40:41;94443.78;;;6.56;100.00
13209;BME280;6669;42.678;23.332;2023-03-03T10:49:38;94439.81;;;6.44;100.00
13209;BME280;6669;42.678;23.332;2023-03-03T10:52:21;94441.34;;;6.28;100.00
13209;BME280;6669;42.678;23.332;2023-03-03T10:55:19;94443.34;;;6.16;100.00
13209;BME280;6669;42.678;23.332;2023-03-03T10:58:02;94436.88;;;6.12;100.00
13209;BME280;6669;42.678;23.332;2023-03-03T11:00:35;94434.94;;;6.14;100.00
13209;BME280;6669;42.678;23.332;2023-03-03T11:03:34;94433.03;;;6.16;100.00
13209;BME280;6669;42.678;23.332;2023-03-03T11:06:12;94432.06;;;6.17;100.00
13209;BME280;6669;42.678;23.332;2023-03-03T11:08:45;94431.84;;;6.11;100.00
13209;BME280;6669;42.678;23.332;2023-03-03T11:11:20;94423.28;;;6.10;100.00
13209;BME280;6669;42.678;23.332;2023-03-03T11:13:53;94425.13;;;6.18;100.00
13209;BME280;6669;42.678;23.332;2023-03-03T11:16:44;94416.16;;;6.04;100.00
13209;BME280;6669;42.678;23.332;2023-03-03T11:19:37;94416.22;;;6.12;100.00
13209;BME280;6669;42.678;23.332;2023-03-03T11:22:17;94407.28;;;5.88;100.00
13209;BME280;6669;42.678;23.332;2023-03-03T11:25:02;94411.56;;;6.16;100.00
13209;BME280;6669;42.678;23.332;2023-03-03T11:27:54;94408.84;;;5.99;100.00
13209;BME280;6669;42.678;23.332;2023-03-03T11:30:35;94404.03;;;6.04;100.00
13209;BME280;6669;42.678;23.332;2023-03-03T11:33:10;94401.03;;;5.91;100.00
13209;BME280;6669;42.678;23.332;2023-03-03T11:35:43;94414.34;;;5.86;100.00
13209;BME280;6669;42.678;23.332;2023-03-03T11:38:41;94409.66;;;5.82;100.00
13209;BME280;6669;42.678;23.332;2023-03-03T11:41:19;94411.34;;;5.73;100.00
13209;BME280;6669;42.678;23.332;2023-03-03T11:43:54;94399.72;;;5.69;100.00
13209;BME280;6669;42.678;23.332;2023-03-03T11:46:26;94399.31;;;5.64;100.00
13209;BME280;6669;42.678;23.332;2023-03-03T11:48:59;94401.31;;;5.70;100.00
13209;BME280;6669;42.678;23.332;2023-03-03T11:51:42;94394.75;;;5.76;100.00
13209;BME280;6669;42.678;23.332;2023-03-03T11:54:18;94389.53;;;5.67;100.00
13209;BME280;6669;42.678;23.332;2023-03-03T11:56:47;94386.88;;;5.59;100.00
13209;BME280;6669;42.678;23.332;2023-03-03T11:59:36;94386.72;;;5.61;100.00
13209;BME280;6669;42.678;23.332;2023-03-03T12:02:20;94385.84;;;5.70;100.00
13209;BME280;6669;42.678;23.332;2023-03-03T12:04:53;94382.88;;;5.83;100.00
13209;BME280;6669;42.678;23.332;2023-03-03T12:07:29;94377.81;;;5.91;100.00
13209;BME280;6669;42.678;23.332;2023-03-03T12:10:10;94389.66;;;6.02;100.00
13209;BME280;6669;42.678;23.332;2023-03-03T12:12:42;94379.34;;;5.84;100.00
13209;BME280;6669;42.678;23.332;2023-03-03T12:15:23;94388.19;;;5.81;100.00
13209;BME280;6669;42.678;23.332;2023-03-03T12:21:04;94384.50;;;6.02;100.00
13209;BME280;6669;42.678;23.332;2023-03-03T12:23:45;94386.50;;;6.08;100.00
13209;BME280;6669;42.678;23.332;2023-03-03T12:26:17;94381.50;;;6.07;100.00
13209;BME280;6669;42.678;23.332;2023-03-03T12:28:51;94384.34;;;6.21;100.00
13209;BME280;6669;42.678;23.332;2023-03-03T12:31:29;94382.06;;;6.18;100.00
13209;BME280;6669;42.678;23.332;2023-03-03T12:34:05;94388.41;;;6.24;100.00
13209;BME280;6669;42.678;23.332;2023-03-03T12:37:11;94385.06;;;6.32;100.00
13209;BME280;6669;42.678;23.332;2023-03-03T12:39:49;94390.06;;;6.33;100.00
13209;BME280;6669;42.678;23.332;2023-03-03T12:42:24;94387.97;;;6.29;100.00
13209;BME280;6669;42.678;23.332;2023-03-03T12:45:08;94386.50;;;6.08;100.00
13209;BME280;6669;42.678;23.332;2023-03-03T12:47:45;94383.28;;;6.06;100.00
13209;BME280;6669;42.678;23.332;2023-03-03T12:50:29;94392.69;;;5.97;100.00
13209;BME280;6669;42.678;23.332;2023-03-03T12:53:08;94395.06;;;5.91;100.00
13209;BME280;6669;42.678;23.332;2023-03-03T12:55:47;94393.44;;;5.89;100.00
13209;BME280;6669;42.678;23.332;2023-03-03T12:58:24;94386.56;;;5.80;100.00
13209;BME280;6669;42.678;23.332;2023-03-03T13:01:03;94388.13;;;5.55;100.00
13209;BME280;6669;42.678;23.332;2023-03-03T13:03:42;94388.13;;;5.55;100.00
13209;BME280;6669;42.678;23.332;2023-03-03T13:06:26;94385.56;;;5.55;100.00
13209;BME280;6669;42.678;23.332;2023-03-03T13:09:12;94384.56;;;5.56;100.00
13209;BME280;6669;42.678;23.332;2023-03-03T13:14:48;94380.97;;;5.67;100.00
13209;BME280;6669;42.678;23.332;2023-03-03T13:17:22;94376.25;;;5.80;100.00
13209;BME280;6669;42.678;23.332;2023-03-03T13:19:56;94375.44;;;5.80;100.00
13209;BME280;6669;42.678;23.332;2023-03-03T13:22:37;94368.00;;;5.95;100.00
13209;BME280;6669;42.678;23.332;2023-03-03T13:25:28;94368.63;;;5.97;100.00
13209;BME280;6669;42.678;23.332;2023-03-03T13:28:01;94371.53;;;6.12;100.00
13209;BME280;6669;42.678;23.332;2023-03-03T13:30:33;94370.38;;;6.06;100.00
13209;BME280;6669;42.678;23.332;2023-03-03T13:33:07;94381.13;;;5.83;100.00
13209;BME280;6669;42.678;23.332;2023-03-03T13:35:42;94371.84;;;5.72;100.00
13209;BME280;6669;42.678;23.332;2023-03-03T13:38:14;94378.91;;;5.88;100.00
13209;BME280;6669;42.678;23.332;2023-03-03T13:40:47;94385.94;;;5.60;100.00
13209;BME280;6669;42.678;23.332;2023-03-03T13:43:19;94365.44;;;5.59;100.00
13209;BME280;6669;42.678;23.332;2023-03-03T13:45:58;94371.56;;;5.57;100.00
13209;BME280;6669;42.678;23.332;2023-03-03T13:48:48;94363.88;;;5.66;100.00
13209;BME280;6669;42.678;23.332;2023-03-03T13:51:25;94370.59;;;5.77;100.00
13209;BME280;6669;42.678;23.332;2023-03-03T13:54:03;94371.31;;;5.87;100.00
13209;BME280;6669;42.678;23.332;2023-03-03T13:56:42;94367.78;;;5.70;100.00